Time;durP1;ratioP1;P1;durP2;ratioP2;P2;SDS_P1;SDS_P2;PMS_P1;PMS_P2;Temp;Humidity;BMP_temperature;BMP_pressure;BME280_temperature;BME280_humidity;BME280_pressure;Samples;Min_cycle;Max_cycle;Signal;HPM_P1;HPM_P2
2023/10/19 00:02:22;;;;;;;6.32;0.90;;;;;;;-143.29;100.00;62188.47;4993957;28;20062;-89
2023/10/19 00:04:49;;;;;;;6.68;1.13;;;;;;;-143.29;100.00;62188.47;4994299;28;20262;-89
2023/10/19 00:07:15;;;;;;;7.78;0.88;;;;;;;-143.29;100.00;62188.47;4994358;28;20022;-89
2023/10/19 00:09:45;;;;;;;3.80;0.98;;;;;;;-143.29;100.00;62188.47;4976443;28;20404;-89
2023/10/19 00:12:10;;;;;;;8.88;1.00;;;;;;;-143.29;100.00;62188.47;4992154;28;20393;-89
2023/10/19 00:14:35;;;;;;;6.05;0.90;;;;;;;-143.29;100.00;62188.47;4993918;28;20037;-89
2023/10/19 00:17:10;;;;;;;3.63;0.80;;;;;;;-143.29;100.00;62188.47;4994324;28;20026;-89
2023/10/19 00:19:41;;;;;;;6.30;1.15;;;;;;;-143.29;100.00;62188.47;4976753;28;20384;-89
2023/10/19 00:22:09;;;;;;;8.48;1.02;;;;;;;-143.29;100.00;62188.47;4993883;28;20030;-89
2023/10/19 00:24:35;;;;;;;3.10;0.75;;;;;;;-143.29;100.00;62188.47;4993817;28;21381;-89
2023/10/19 00:27:10;;;;;;;8.30;0.70;;;;;;;-143.29;100.00;62188.47;4975488;28;20441;-89
2023/10/19 00:29:40;;;;;;;7.35;1.35;;;;;;;-143.29;100.00;62188.47;4993856;28;20026;-89
2023/10/19 00:32:12;;;;;;;9.80;1.02;;;;;;;-143.29;100.00;62188.47;4976398;28;20023;-89
2023/10/19 00:34:38;;;;;;;4.63;0.70;;;;;;;-143.29;100.00;62188.47;4993307;28;20034;-88
2023/10/19 00:37:07;;;;;;;5.50;0.85;;;;;;;-143.29;100.00;62188.47;4993188;28;20030;-89
2023/10/19 00:39:43;;;;;;;9.38;1.00;;;;;;;-143.29;100.00;62188.47;4993519;28;20044;-89
2023/10/19 00:42:08;;;;;;;7.57;0.63;;;;;;;-143.29;100.00;62188.47;4992603;28;20030;-89
2023/10/19 00:44:41;;;;;;;7.90;1.20;;;;;;;-143.29;100.00;62188.47;4993554;28;20358;-89
2023/10/19 00:47:13;;;;;;;6.18;1.10;;;;;;;-143.29;100.00;62188.47;4993287;28;20086;-89
2023/10/19 00:49:38;;;;;;;6.40;1.10;;;;;;;-143.29;100.00;62188.47;4993467;28;20436;-89
2023/10/19 00:52:16;;;;;;;6.07;0.90;;;;;;;-143.29;100.00;62188.47;4993247;28;20276;-89
2023/10/19 00:57:19;;;;;;;6.30;0.70;;;;;;;-143.29;100.00;62188.47;4992587;28;20378;-89
2023/10/19 00:59:49;;;;;;;4.82;0.98;;;;;;;-143.29;100.00;62188.47;4993401;28;20483;-89
2023/10/19 01:02:28;;;;;;;9.85;1.10;;;;;;;-143.29;100.00;62188.47;4993193;28;20030;-89
2023/10/19 01:04:56;;;;;;;7.30;0.77;;;;;;;-143.29;100.00;62188.47;4992953;28;20018;-89
2023/10/19 01:07:28;;;;;;;5.78;0.82;;;;;;;-143.29;100.00;62188.47;4993260;28;20033;-89
2023/10/19 01:09:59;;;;;;;5.93;0.90;;;;;;;-143.29;100.00;62188.47;4993144;28;20026;-89
2023/10/19 01:12:27;;;;;;;5.32;0.50;;;;;;;-143.29;100.00;62188.47;4991929;28;20429;-89
2023/10/19 01:15:13;;;;;;;4.35;0.70;;;;;;;-143.29;100.00;62188.47;4992855;28;20041;-89
2023/10/19 01:17:43;;;;;;;8.05;1.30;;;;;;;-143.29;100.00;62188.47;4975294;28;20026;-89
2023/10/19 01:20:22;;;;;;;6.82;0.80;;;;;;;-143.29;100.00;62188.47;4992851;28;20037;-89
2023/10/19 01:25:59;;;;;;;6.80;1.42;;;;;;;-143.29;100.00;62188.47;4991789;28;20030;-89
2023/10/19 01:28:48;;;;;;;7.15;0.85;;;;;;;-143.29;100.00;62188.47;4975164;28;20030;-89
2023/10/19 01:33:57;;;;;;;5.28;0.80;;;;;;;-143.29;100.00;62188.47;4992765;28;20030;-89
2023/10/19 01:38:49;;;;;;;4.07;0.60;;;;;;;-143.29;100.00;62188.47;4992446;28;20030;-89
2023/10/19 01:41:21;;;;;;;2.03;0.43;;;;;;;-143.29;100.00;62188.47;4991209;28;20092;-89
2023/10/19 01:43:48;;;;;;;3.88;0.73;;;;;;;-143.29;100.00;62188.47;4992541;28;20060;-89
2023/10/19 01:46:23;;;;;;;4.15;0.63;;;;;;;-143.29;100.00;62188.47;4992547;28;20054;-89
2023/10/19 01:48:55;;;;;;;7.22;2.03;;;;;;;-143.29;100.00;62188.47;4974716;28;20034;-89
2023/10/19 01:51:22;;;;;;;3.88;0.60;;;;;;;-143.29;100.00;62188.47;4992252;28;20034;-89
2023/10/19 01:53:48;;;;;;;2.83;0.57;;;;;;;-143.29;100.00;62188.47;4991259;28;20034;-88
2023/10/19 01:56:19;;;;;;;5.95;0.85;;;;;;;-143.29;100.00;62188.47;4992441;28;20023;-89
2023/10/19 01:58:48;;;;;;;17.52;1.00;;;;;;;-143.29;100.00;62188.47;4992150;28;20031;-89
2023/10/19 02:01:20;;;;;;;2.92;0.52;;;;;;;-143.29;100.00;62188.47;4992389;28;20101;-89
2023/10/19 02:03:46;;;;;;;;;;;;;;;-143.29;100.00;62188.47;4992824;28;20114;-88
2023/10/19 02:06:17;;;;;;;3.50;0.70;;;;;;;-143.29;100.00;62188.47;4992037;28;20008;-88
2023/10/19 02:08:51;;;;;;;5.47;1.03;;;;;;;-143.29;100.00;62188.47;4988076;28;20054;-89
2023/10/19 02:11:24;;;;;;;4.32;0.82;;;;;;;-143.29;100.00;62188.47;4992593;28;20311;-89
2023/10/19 02:13:52;;;;;;;5.25;0.88;;;;;;;-143.29;100.00;62188.47;4990979;28;20022;-88
2023/10/19 02:16:32;;;;;;;4.93;1.17;;;;;;;-143.29;100.00;62188.47;4992839;28;20038;-88
2023/10/19 02:18:58;;;;;;;6.10;1.65;;;;;;;-143.29;100.00;62188.47;4996251;28;20501;-89
2023/10/19 02:21:27;;;;;;;6.85;1.10;;;;;;;-143.29;100.00;62188.47;4995671;28;20033;-89
2023/10/19 02:23:52;;;;;;;6.07;1.42;;;;;;;-143.29;100.00;62188.47;4976607;28;20023;-90
2023/10/19 02:26:22;;;;;;;3.08;1.33;;;;;;;-143.29;100.00;62188.47;4976648;28;20432;-89
2023/10/19 02:28:50;;;;;;;6.07;1.30;;;;;;;-143.29;100.00;62188.47;4978859;28;20461;-89
2023/10/19 02:31:24;;;;;;;6.50;1.80;;;;;;;-143.29;100.00;62188.47;4995793;28;20041;-89
2023/10/19 02:34:00;;;;;;;14.63;1.60;;;;;;;-143.29;100.00;62188.47;4995845;28;20049;-89
2023/10/19 02:36:30;;;;;;;17.17;2.38;;;;;;;-143.29;100.00;62188.47;4977679;28;20114;-89
2023/10/19 02:39:07;;;;;;;19.08;2.30;;;;;;;-143.29;100.00;62188.47;4995766;28;20030;-89
2023/10/19 02:41:35;;;;;;;14.40;1.48;;;;;;;-143.29;100.00;62188.47;4958834;28;20023;-89
2023/10/19 02:46:29;;;;;;;14.73;2.38;;;;;;;-143.29;100.00;62188.47;4976533;28;20062;-89
2023/10/19 02:48:55;;;;;;;10.98;2.45;;;;;;;-143.29;100.00;62188.47;4976609;28;20026;-89
2023/10/19 02:51:21;;;;;;;18.73;4.55;;;;;;;-143.29;100.00;62188.47;4994478;28;20045;-89
2023/10/19 02:53:46;;;;;;;8.30;1.75;;;;;;;-143.29;100.00;62188.47;4993678;28;20023;-89
2023/10/19 02:56:16;;;;;;;14.13;2.17;;;;;;;-143.29;100.00;62188.47;4995254;28;20604;-89
2023/10/19 02:58:43;;;;;;;18.08;2.40;;;;;;;-143.29;100.00;62188.47;4976474;28;20113;-89
2023/10/19 03:01:29;;;;;;;12.10;1.60;;;;;;;-143.29;100.00;62188.47;4993530;28;20026;-89
2023/10/19 03:03:59;;;;;;;14.75;3.20;;;;;;;-143.29;100.00;62188.47;4994611;28;20026;-89
2023/10/19 03:06:25;;;;;;;16.20;2.40;;;;;;;-143.29;100.00;62188.47;4993847;28;20548;-89
2023/10/19 03:08:57;;;;;;;16.55;2.80;;;;;;;-143.29;100.00;62188.47;4995226;28;20113;-89
2023/10/19 03:11:29;;;;;;;16.30;2.53;;;;;;;-143.29;100.00;62188.47;4995286;28;20026;-89
2023/10/19 03:13:56;;;;;;;15.48;2.45;;;;;;;-143.29;100.00;62188.47;4995013;28;20023;-88
2023/10/19 03:16:23;;;;;;;18.83;2.42;;;;;;;-143.29;100.00;62188.47;4995357;28;20026;-89
2023/10/19 03:18:49;;;;;;;16.67;2.75;;;;;;;-143.29;100.00;62188.47;4977461;28;20117;-89
2023/10/19 03:21:16;;;;;;;24.98;2.65;;;;;;;-143.29;100.00;62188.47;4991598;28;20058;-89
2023/10/19 03:23:42;;;;;;;21.60;3.58;;;;;;;-143.29;100.00;62188.47;4989681;28;20028;-89
2023/10/19 03:28:55;;;;;;;17.30;2.40;;;;;;;-143.29;100.00;62188.47;4993544;28;20033;-89
2023/10/19 03:31:26;;;;;;;18.67;2.80;;;;;;;-143.29;100.00;62188.47;4994983;28;20500;-89
2023/10/19 03:33:56;;;;;;;11.63;1.90;;;;;;;-143.29;100.00;62188.47;4994835;28;20035;-89
2023/10/19 03:36:23;;;;;;;11.90;1.83;;;;;;;-143.29;100.00;62188.47;4993856;28;20512;-89
2023/10/19 03:38:50;;;;;;;19.17;2.75;;;;;;;-143.29;100.00;62188.47;4994996;28;20030;-89
2023/10/19 03:41:16;;;;;;;34.30;3.45;;;;;;;-143.29;100.00;62188.47;4994754;28;20027;-89
2023/10/19 03:43:42;;;;;;;32.40;4.82;;;;;;;-143.29;100.00;62188.47;4994494;28;20026;-89
2023/10/19 03:48:51;;;;;;;28.05;3.75;;;;;;;-143.29;100.00;62188.47;4994283;28;20042;-89
2023/10/19 03:51:17;;;;;;;32.60;4.20;;;;;;;-143.29;100.00;62188.47;4992899;28;20031;-89
2023/10/19 03:53:55;;;;;;;26.50;4.25;;;;;;;-143.29;100.00;62188.47;4976801;28;20038;-89
2023/10/19 03:56:20;;;;;;;37.60;5.05;;;;;;;-143.29;100.00;62188.47;4994452;28;20028;-89
2023/10/19 03:58:50;;;;;;;34.13;5.18;;;;;;;-143.29;100.00;62188.47;4994282;28;20026;-89
2023/10/19 04:01:16;;;;;;;26.45;3.90;;;;;;;-143.29;100.00;62188.47;4994515;28;20030;-89
2023/10/19 04:03:43;;;;;;;35.70;4.32;;;;;;;-143.29;100.00;62188.47;4976729;28;20018;-89
2023/10/19 04:06:13;;;;;;;28.67;4.20;;;;;;;-143.29;100.00;62188.47;4992660;28;20023;-90
2023/10/19 04:08:39;;;;;;;25.33;3.47;;;;;;;-143.29;100.00;62188.47;4993973;28;20030;-89
2023/10/19 04:11:11;;;;;;;30.27;4.65;;;;;;;-143.29;100.00;62188.47;4994215;28;20477;-89
2023/10/19 04:13:38;;;;;;;22.40;4.00;;;;;;;-143.29;100.00;62188.47;4993970;28;20019;-89
2023/10/19 04:16:05;;;;;;;21.27;3.72;;;;;;;-143.29;100.00;62188.47;4994108;28;20113;-89
2023/10/19 04:18:30;;;;;;;24.17;3.00;;;;;;;-143.29;100.00;62188.47;4976478;28;20018;-89
2023/10/19 04:20:56;;;;;;;14.45;2.22;;;;;;;-143.29;100.00;62188.47;4993148;28;20080;-89
2023/10/19 04:23:26;;;;;;;15.15;2.40;;;;;;;-143.29;100.00;62188.47;4976386;28;20062;-88
2023/10/19 04:25:52;;;;;;;18.20;2.95;;;;;;;-143.29;100.00;62188.47;4993609;28;20022;-89
2023/10/19 04:28:22;;;;;;;21.70;1.92;;;;;;;-143.29;100.00;62188.47;4976139;28;20037;-89
2023/10/19 04:30:48;;;;;;;16.52;2.13;;;;;;;-143.29;100.00;62188.47;4994304;28;20122;-89
2023/10/19 04:33:16;;;;;;;13.25;1.90;;;;;;;-143.29;100.00;62188.47;4976187;28;20042;-89
2023/10/19 04:35:41;;;;;;;12.75;2.05;;;;;;;-143.29;100.00;62188.47;4975353;28;20027;-89
2023/10/19 04:38:07;;;;;;;9.23;1.60;;;;;;;-143.29;100.00;62188.47;4993609;28;20026;-89
2023/10/19 04:40:33;;;;;;;13.15;1.95;;;;;;;-143.29;100.00;62188.47;4992929;28;20062;-89
2023/10/19 04:42:59;;;;;;;26.90;2.72;;;;;;;-143.29;100.00;62188.47;4993414;28;20104;-89
2023/10/19 04:45:24;;;;;;;13.13;1.52;;;;;;;-143.29;100.00;62188.47;4993140;28;20113;-89
2023/10/19 04:47:52;;;;;;;19.23;2.10;;;;;;;-143.29;100.00;62188.47;4993159;28;20022;-89
2023/10/19 04:50:18;;;;;;;9.43;1.80;;;;;;;-143.29;100.00;62188.47;4992770;28;20026;-89
2023/10/19 04:52:43;;;;;;;12.20;1.48;;;;;;;-143.29;100.00;62188.47;4993272;28;20034;-88
2023/10/19 04:55:09;;;;;;;16.95;2.13;;;;;;;-143.29;100.00;62188.47;4993196;28;20023;-88
2023/10/19 04:57:34;;;;;;;21.33;3.42;;;;;;;-143.29;100.00;62188.47;4992871;28;20046;-88
2023/10/19 05:00:00;;;;;;;9.52;1.50;;;;;;;-143.29;100.00;62188.47;4975866;28;20532;-89
2023/10/19 05:02:26;;;;;;;21.13;2.47;;;;;;;-143.29;100.00;62188.47;4975789;28;20521;-89
2023/10/19 05:04:51;;;;;;;21.70;2.88;;;;;;;-143.29;100.00;62188.47;4991440;28;20054;-89
2023/10/19 05:07:16;;;;;;;23.83;2.45;;;;;;;-143.29;100.00;62188.47;4992896;28;20022;-89
2023/10/19 05:09:43;;;;;;;21.83;2.72;;;;;;;-143.29;100.00;62188.47;4992956;28;20113;-89
2023/10/19 05:12:11;;;;;;;31.13;2.90;;;;;;;-143.29;100.00;62188.47;4992393;28;20117;-89
2023/10/19 05:14:41;;;;;;;21.70;3.25;;;;;;;-143.29;100.00;62188.47;4992834;28;20136;-89
2023/10/19 05:17:08;;;;;;;29.75;3.75;;;;;;;-143.29;100.00;62188.47;4993078;28;20080;-88
2023/10/19 05:19:35;;;;;;;16.55;2.83;;;;;;;-143.29;100.00;62188.47;4991886;28;20022;-89
2023/10/19 05:22:01;;;;;;;30.23;3.80;;;;;;;-143.29;100.00;62188.47;4992536;28;20015;-88
2023/10/19 05:24:30;;;;;;;21.17;4.57;;;;;;;-143.29;100.00;62188.47;4992527;28;20034;-89
2023/10/19 05:26:56;;;;;;;38.88;3.90;;;;;;;-143.29;100.00;62188.47;4992608;28;20026;-88
2023/10/19 05:29:23;;;;;;;27.67;4.28;;;;;;;-143.29;100.00;62188.47;4991105;28;20093;-88
2023/10/19 05:31:53;;;;;;;41.03;3.78;;;;;;;-143.29;100.00;62188.47;4992902;28;20042;-88
2023/10/19 05:34:21;;;;;;;28.75;3.58;;;;;;;-143.29;100.00;62188.47;4992436;28;20117;-89
2023/10/19 05:36:48;;;;;;;33.05;4.25;;;;;;;-143.29;100.00;62188.47;4975124;28;20078;-89
2023/10/19 05:39:14;;;;;;;39.78;8.93;;;;;;;-143.29;100.00;62188.47;4991979;28;20026;-90
2023/10/19 05:41:40;;;;;;;34.17;4.63;;;;;;;-143.29;100.00;62188.47;4975021;28;20113;-89
2023/10/19 05:44:05;;;;;;;35.03;4.05;;;;;;;-143.29;100.00;62188.47;4991567;28;20577;-91
2023/10/19 05:46:31;;;;;;;30.45;3.83;;;;;;;-143.29;100.00;62188.47;4991697;28;20037;-90
2023/10/19 05:48:57;;;;;;;29.30;4.53;;;;;;;-143.29;100.00;62188.47;4987792;28;20041;-90
2023/10/19 05:51:23;;;;;;;32.10;4.13;;;;;;;-143.29;100.00;62188.47;4991053;28;20022;-88
2023/10/19 05:53:48;;;;;;;31.75;5.07;;;;;;;-143.29;100.00;62188.47;4965042;28;20030;-88
2023/10/19 05:56:16;;;;;;;28.55;3.13;;;;;;;-143.29;100.00;62188.47;4991488;28;20042;-88
2023/10/19 05:58:42;;;;;;;39.20;4.82;;;;;;;-143.29;100.00;62188.47;4992104;28;20039;-88
2023/10/19 06:01:08;;;;;;;25.02;3.95;;;;;;;-143.29;100.00;62188.47;4992294;28;20484;-88
2023/10/19 06:03:33;;;;;;;43.50;4.63;;;;;;;-143.29;100.00;62188.47;4992261;28;20034;-88
2023/10/19 06:05:58;;;;;;;28.33;4.10;;;;;;;-143.29;100.00;62188.47;4974913;28;20077;-88
2023/10/19 06:08:24;;;;;;;33.22;4.70;;;;;;;-143.29;100.00;62188.47;4989685;28;20396;-87
2023/10/19 06:10:52;;;;;;;49.67;6.03;;;;;;;-143.29;100.00;62188.47;4992249;28;20054;-88
2023/10/19 06:13:18;;;;;;;37.08;4.10;;;;;;;-143.29;100.00;62188.47;4991931;28;20026;-88
2023/10/19 06:15:43;;;;;;;31.55;4.35;;;;;;;-143.29;100.00;62188.47;4991505;28;20404;-88
2023/10/19 06:18:10;;;;;;;36.33;4.85;;;;;;;-143.29;100.00;62188.47;4992097;28;20027;-90
2023/10/19 06:20:36;;;;;;;14.80;2.67;;;;;;;-143.29;100.00;62188.47;4992127;28;20030;-90
2023/10/19 06:23:05;;;;;;;25.65;3.95;;;;;;;-143.29;100.00;62188.47;4989775;28;20038;-90
2023/10/19 06:25:32;;;;;;;40.28;5.18;;;;;;;-143.29;100.00;62188.47;4992133;28;20477;-90
2023/10/19 06:27:57;;;;;;;42.13;5.47;;;;;;;-143.29;100.00;62188.47;4989223;28;20478;-89
2023/10/19 06:30:23;;;;;;;37.78;3.72;;;;;;;-143.29;100.00;62188.47;4991754;28;20049;-89
2023/10/19 06:33:00;;;;;;;27.88;4.40;;;;;;;-143.29;100.00;62188.47;4992109;28;20375;-89
2023/10/19 06:35:26;;;;;;;35.33;4.50;;;;;;;-143.29;100.00;62188.47;4974517;28;20366;-90
2023/10/19 06:37:54;;;;;;;33.50;4.75;;;;;;;-143.29;100.00;62188.47;4974655;28;20026;-90
2023/10/19 06:40:21;;;;;;;34.17;4.28;;;;;;;-143.29;100.00;62188.47;4992106;28;20481;-90
2023/10/19 06:42:48;;;;;;;25.60;3.65;;;;;;;-143.29;100.00;62188.47;4991073;28;20030;-89
2023/10/19 06:45:14;;;;;;;37.85;4.47;;;;;;;-143.29;100.00;62188.47;4991931;28;20054;-90
2023/10/19 06:47:41;;;;;;;29.83;3.60;;;;;;;-143.29;100.00;62188.47;4984498;28;20038;-90
2023/10/19 06:50:09;;;;;;;32.47;4.15;;;;;;;-143.29;100.00;62188.47;4955269;28;20050;-89
2023/10/19 06:52:35;;;;;;;29.25;4.03;;;;;;;-143.29;100.00;62188.47;4972490;28;20082;-90
2023/10/19 06:55:03;;;;;;;29.08;4.25;;;;;;;-143.29;100.00;62188.47;4972531;28;20136;-90
2023/10/19 06:57:28;;;;;;;38.00;5.05;;;;;;;-143.29;100.00;62188.47;4972316;28;20031;-90
2023/10/19 06:59:54;;;;;;;29.90;4.18;;;;;;;-143.29;100.00;62188.47;4991332;28;20022;-89
2023/10/19 07:02:20;;;;;;;45.55;5.72;;;;;;;-143.29;100.00;62188.47;4992180;28;20030;-90
2023/10/19 07:04:47;;;;;;;22.67;3.53;;;;;;;-143.29;100.00;62188.47;4995370;28;20165;-90
2023/10/19 07:07:13;;;;;;;38.45;4.32;;;;;;;-143.29;100.00;62188.47;4995257;28;20538;-90
2023/10/19 07:09:39;;;;;;;33.35;5.63;;;;;;;-143.29;100.00;62188.47;4995348;28;20477;-89
2023/10/19 07:12:04;;;;;;;36.92;5.00;;;;;;;-143.29;100.00;62188.47;4994801;28;20033;-89
2023/10/19 07:14:32;;;;;;;41.65;5.07;;;;;;;-143.29;100.00;62188.47;4993356;28;20113;-90
2023/10/19 07:16:58;;;;;;;32.63;5.18;;;;;;;-143.29;100.00;62188.47;4995080;28;20046;-90
2023/10/19 07:19:23;;;;;;;38.60;4.45;;;;;;;-143.29;100.00;62188.47;4995621;28;20022;-90
2023/10/19 07:21:49;;;;;;;39.17;5.60;;;;;;;-143.29;100.00;62188.47;4995000;28;20425;-90
2023/10/19 07:24:18;;;;;;;34.58;3.67;;;;;;;-143.29;100.00;62188.47;4995293;28;20022;-90
2023/10/19 07:26:53;;;;;;;30.83;3.83;;;;;;;-143.29;100.00;62188.47;4995189;28;20138;-90
2023/10/19 07:29:19;;;;;;;38.00;5.22;;;;;;;-143.29;100.00;62188.47;4992428;28;20034;-90
2023/10/19 07:31:45;;;;;;;37.90;4.97;;;;;;;-143.29;100.00;62188.47;4992449;28;20034;-90
2023/10/19 07:34:14;;;;;;;45.75;5.55;;;;;;;-143.29;100.00;62188.47;4994889;28;20406;-90
2023/10/19 07:36:42;;;;;;;27.30;3.65;;;;;;;-143.29;100.00;62188.47;4976287;28;20050;-90
2023/10/19 07:39:13;;;;;;;39.55;4.07;;;;;;;-143.29;100.00;62188.47;4977087;28;20538;-91
2023/10/19 07:41:40;;;;;;;29.58;3.95;;;;;;;-143.29;100.00;62188.47;4994683;28;20026;-91
2023/10/19 07:44:05;;;;;;;47.85;6.55;;;;;;;-143.29;100.00;62188.47;4988517;28;20085;-92
2023/10/19 07:46:31;;;;;;;45.17;5.78;;;;;;;-143.29;100.00;62188.47;4989076;28;20385;-92
2023/10/19 07:48:59;;;;;;;33.45;4.82;;;;;;;-143.29;100.00;62188.47;4993763;28;20037;-92
2023/10/19 07:51:24;;;;;;;30.42;3.78;;;;;;;-143.29;100.00;62188.47;4992231;28;20022;-91
2023/10/19 07:53:51;;;;;;;28.75;4.95;;;;;;;-143.29;100.00;62188.47;4974489;28;20034;-91
2023/10/19 07:56:17;;;;;;;33.72;4.75;;;;;;;-143.29;100.00;62188.47;4977367;28;20038;-91
2023/10/19 07:58:42;;;;;;;46.40;4.45;;;;;;;-143.29;100.00;62188.47;4975369;28;20018;-90
2023/10/19 08:01:08;;;;;;;43.97;6.25;;;;;;;-143.29;100.00;62188.47;4993547;28;20084;-91
2023/10/19 08:03:33;;;;;;;29.40;4.43;;;;;;;-143.29;100.00;62188.47;4994415;28;20449;-91
2023/10/19 08:05:59;;;;;;;38.30;4.70;;;;;;;-143.29;100.00;62188.47;4994224;28;20533;-90
2023/10/19 08:08:24;;;;;;;48.25;5.45;;;;;;;-143.29;100.00;62188.47;4975277;28;20092;-91
2023/10/19 08:10:50;;;;;;;33.92;4.90;;;;;;;-143.29;100.00;62188.47;4993750;28;20038;-91
2023/10/19 08:13:15;;;;;;;39.92;5.25;;;;;;;-143.29;100.00;62188.47;4992203;28;20064;-91
2023/10/19 08:15:40;;;;;;;40.83;5.80;;;;;;;-143.29;100.00;62188.47;4992160;28;20018;-92
2023/10/19 08:18:06;;;;;;;34.58;4.72;;;;;;;-143.29;100.00;62188.47;4994905;28;20022;-90
2023/10/19 08:20:31;;;;;;;36.97;5.07;;;;;;;-143.29;100.00;62188.47;4995216;28;20023;-90
2023/10/19 08:22:58;;;;;;;42.55;4.70;;;;;;;-143.29;100.00;62188.47;5007849;28;20190;-91
2023/10/19 08:25:27;;;;;;;44.22;6.13;;;;;;;-143.29;100.00;62188.47;4993258;28;20034;-91
2023/10/19 08:27:56;;;;;;;34.05;4.32;;;;;;;-143.29;100.00;62188.47;4992271;28;20081;-92
2023/10/19 08:30:22;;;;;;;38.17;4.93;;;;;;;-143.29;100.00;62188.47;5004102;28;20026;-91
2023/10/19 08:32:48;;;;;;;29.08;4.88;;;;;;;-143.29;100.00;62188.47;5001471;28;20472;-92
2023/10/19 08:35:15;;;;;;;26.10;3.25;;;;;;;-143.29;100.00;62188.47;4990814;28;20030;-91
2023/10/19 08:37:41;;;;;;;34.72;4.53;;;;;;;-143.29;100.00;62188.47;4991769;28;20022;-92
2023/10/19 08:40:14;;;;;;;22.95;3.17;;;;;;;-143.29;100.00;62188.47;4974371;28;20357;-92
2023/10/19 08:42:43;;;;;;;19.63;2.83;;;;;;;-143.29;100.00;62188.47;4975175;28;20022;-91
2023/10/19 08:45:13;;;;;;;20.73;3.72;;;;;;;-143.29;100.00;62188.47;4974339;28;20026;-92
2023/10/19 08:47:56;;;;;;;23.88;3.40;;;;;;;-143.29;100.00;62188.47;4992852;28;20441;-91
2023/10/19 08:50:23;;;;;;;16.77;2.90;;;;;;;-143.29;100.00;62188.47;4992286;28;20027;-92
2023/10/19 08:52:55;;;;;;;19.40;3.97;;;;;;;-143.29;100.00;62188.47;4975896;28;20388;-92
2023/10/19 08:55:20;;;;;;;26.55;3.40;;;;;;;-143.29;100.00;62188.47;4993086;28;20037;-92
2023/10/19 08:57:48;;;;;;;19.40;3.13;;;;;;;-143.29;100.00;62188.47;4975179;28;20110;-92
2023/10/19 09:00:18;;;;;;;15.30;2.92;;;;;;;-143.29;100.00;62188.47;4974466;28;20034;-92
2023/10/19 09:02:44;;;;;;;16.08;3.22;;;;;;;-143.29;100.00;62188.47;4975876;28;20362;-92
2023/10/19 09:05:19;;;;;;;13.18;2.20;;;;;;;-143.29;100.00;62188.47;4974790;28;20026;-92
2023/10/19 09:07:54;;;;;;;21.33;2.90;;;;;;;-143.29;100.00;62188.47;4992978;28;20388;-92
2023/10/19 09:10:22;;;;;;;17.83;3.03;;;;;;;-143.29;100.00;62188.47;4975808;28;20026;-91
2023/10/19 09:12:59;;;;;;;23.88;3.03;;;;;;;-143.29;100.00;62188.47;4975723;28;20382;-91
2023/10/19 09:15:26;;;;;;;26.75;4.22;;;;;;;-143.29;100.00;62188.47;4992897;28;20030;-92
2023/10/19 09:17:54;;;;;;;30.23;5.32;;;;;;;-143.29;100.00;62188.47;4992959;28;20049;-92
2023/10/19 09:20:27;;;;;;;33.38;4.97;;;;;;;-143.29;100.00;62188.47;4992961;28;20026;-92
2023/10/19 09:22:57;;;;;;;30.27;4.07;;;;;;;-143.29;100.00;62188.47;4992993;28;20105;-92
2023/10/19 09:25:23;;;;;;;29.47;4.50;;;;;;;-143.29;100.00;62188.47;4975280;28;20563;-91
2023/10/19 09:27:48;;;;;;;38.75;5.18;;;;;;;-143.29;100.00;62188.47;4992768;28;20117;-92
2023/10/19 09:30:18;;;;;;;27.83;4.95;;;;;;;-143.29;100.00;62188.47;4975296;28;20025;-92
2023/10/19 09:32:47;;;;;;;35.85;5.50;;;;;;;-143.29;100.00;62188.47;4975344;28;20015;-92
2023/10/19 09:35:15;;;;;;;27.15;5.00;;;;;;;-143.29;100.00;62188.47;4992511;28;20485;-92
2023/10/19 09:37:42;;;;;;;29.48;4.78;;;;;;;-143.29;100.00;62188.47;4992637;28;20018;-92
2023/10/19 09:40:12;;;;;;;30.38;5.32;;;;;;;-143.29;100.00;62188.47;4992461;28;20018;-92
2023/10/19 09:42:46;;;;;;;30.33;4.68;;;;;;;-143.29;100.00;62188.47;4992405;28;20073;-91
2023/10/19 09:45:12;;;;;;;28.63;4.57;;;;;;;-143.29;100.00;62188.47;4975097;28;20019;-91
2023/10/19 09:47:46;;;;;;;29.20;5.40;;;;;;;-143.29;100.00;62188.47;4992277;28;20045;-91
2023/10/19 09:50:11;;;;;;;36.03;5.53;;;;;;;-143.29;100.00;62188.47;4992515;28;20030;-92
2023/10/19 09:52:39;;;;;;;34.30;5.40;;;;;;;-143.29;100.00;62188.47;4992453;28;20026;-91
2023/10/19 09:55:14;;;;;;;31.67;5.28;;;;;;;-143.29;100.00;62188.47;4992332;28;20465;-92
2023/10/19 09:57:51;;;;;;;27.95;5.45;;;;;;;-143.29;100.00;62188.47;4974991;28;20121;-91
2023/10/19 10:00:23;;;;;;;33.60;5.65;;;;;;;-143.29;100.00;62188.47;4992261;28;20091;-91
2023/10/19 10:02:48;;;;;;;;;;;;;;;-143.29;100.00;62188.47;4975289;28;20485;-91
2023/10/19 10:05:53;;;;;;;34.35;4.82;;;;;;;-143.29;100.00;62188.47;4974901;28;19924;-91
2023/10/19 10:08:18;;;;;;;23.45;4.88;;;;;;;-143.29;100.00;62188.47;4991697;28;20042;-91
2023/10/19 10:10:44;;;;;;;32.08;4.38;;;;;;;-143.29;100.00;62188.47;4992184;28;20030;-91
2023/10/19 10:13:27;;;;;;;36.03;5.47;;;;;;;-143.29;100.00;62188.47;4992265;28;20026;-91
2023/10/19 10:15:54;;;;;;;30.30;5.00;;;;;;;-143.29;100.00;62188.47;4992361;28;20069;-92
2023/10/19 10:18:20;;;;;;;25.88;4.43;;;;;;;-143.29;100.00;62188.47;4992295;28;20034;-92
2023/10/19 10:20:47;;;;;;;29.52;3.72;;;;;;;-143.29;100.00;62188.47;4991998;28;20433;-91
2023/10/19 10:23:24;;;;;;;23.00;4.35;;;;;;;-143.29;100.00;62188.47;4974695;28;20365;-92
2023/10/19 10:25:53;;;;;;;27.58;4.53;;;;;;;-143.29;100.00;62188.47;4974711;28;20026;-92
2023/10/19 10:28:19;;;;;;;32.67;5.05;;;;;;;-143.29;100.00;62188.47;4974469;28;20038;-92
2023/10/19 10:31:07;;;;;;;28.08;4.75;;;;;;;-143.29;100.00;62188.47;4974597;28;20386;-91
2023/10/19 10:33:51;;;;;;;34.33;5.03;;;;;;;-143.29;100.00;62188.47;4992035;28;20018;-91
2023/10/19 10:36:18;;;;;;;32.33;4.75;;;;;;;-143.29;100.00;62188.47;4991961;28;20030;-91
2023/10/19 10:38:48;;;;;;;27.95;3.75;;;;;;;-143.29;100.00;62188.47;4977419;28;20389;-92
2023/10/19 10:41:27;;;;;;;23.75;4.43;;;;;;;-143.29;100.00;62188.47;4995928;28;20033;-92
2023/10/19 10:43:55;;;;;;;30.95;5.20;;;;;;;-143.29;100.00;62188.47;4978208;28;20018;-91
2023/10/19 10:46:22;;;;;;;32.50;5.10;;;;;;;-143.29;100.00;62188.47;4978366;28;20118;-91
2023/10/19 10:48:48;;;;;;;27.20;4.45;;;;;;;-143.29;100.00;62188.47;4978319;28;20470;-92
2023/10/19 10:51:24;;;;;;;22.08;3.55;;;;;;;-143.29;100.00;62188.47;4995624;28;20097;-91
2023/10/19 10:53:51;;;;;;;21.52;3.90;;;;;;;-143.29;100.00;62188.47;4995448;28;20033;-92
2023/10/19 10:56:18;;;;;;;26.35;4.18;;;;;;;-143.29;100.00;62188.47;4995582;28;20034;-89
2023/10/19 10:58:44;;;;;;;27.70;4.13;;;;;;;-143.29;100.00;62188.47;4977923;28;20455;-92
2023/10/19 11:01:10;;;;;;;26.90;4.55;;;;;;;-143.29;100.00;62188.47;4978015;28;20022;-92
2023/10/19 11:03:36;;;;;;;23.75;4.90;;;;;;;-143.29;100.00;62188.47;4995283;28;20037;-91
2023/10/19 11:06:09;;;;;;;24.17;3.42;;;;;;;-143.29;100.00;62188.47;4995312;28;20316;-91
2023/10/19 11:08:36;;;;;;;19.17;3.95;;;;;;;-143.29;100.00;62188.47;4995150;28;20125;-92
2023/10/19 11:11:04;;;;;;;21.88;3.38;;;;;;;-143.29;100.00;62188.47;4995369;28;20129;-91
2023/10/19 11:13:32;;;;;;;21.10;3.75;;;;;;;-143.29;100.00;62188.47;4995196;28;20025;-92
2023/10/19 11:15:58;;;;;;;19.73;3.72;;;;;;;-143.29;100.00;62188.47;4995091;28;20057;-91
2023/10/19 11:18:39;;;;;;;19.55;3.90;;;;;;;-143.29;100.00;62188.47;4995185;28;20362;-91
2023/10/19 11:21:14;;;;;;;20.05;3.50;;;;;;;-143.29;100.00;62188.47;4977412;28;20030;-91
2023/10/19 11:23:40;;;;;;;20.65;3.42;;;;;;;-143.29;100.00;62188.47;4994995;28;20030;-91
2023/10/19 11:26:06;;;;;;;18.55;3.17;;;;;;;-143.29;100.00;62188.47;4994959;28;20034;-91
2023/10/19 11:28:33;;;;;;;30.95;4.72;;;;;;;-143.29;100.00;62188.47;4994893;28;20030;-92
2023/10/19 11:31:15;;;;;;;20.48;3.75;;;;;;;-143.29;100.00;62188.47;4994766;28;20030;-91